createdAt,value
2019-05-13T00:02:17.011Z,16.57
2019-05-13T00:04:46.017Z,12.10
2019-05-13T00:07:14.936Z,7.80
2019-05-13T00:09:44.298Z,11.33
2019-05-13T00:12:13.816Z,9.63
2019-05-13T00:14:43.784Z,8.40
2019-05-13T00:17:14.570Z,8.23
2019-05-13T00:19:44.292Z,9.48
2019-05-13T00:22:14.314Z,8.88
2019-05-13T00:24:44.314Z,9.45
2019-05-13T00:27:14.102Z,9.23
2019-05-13T00:29:44.397Z,8.50
2019-05-13T00:32:13.625Z,10.43
2019-05-13T00:34:44.538Z,11.08
2019-05-13T00:37:14.637Z,9.58
2019-05-13T00:39:44.665Z,9.75
2019-05-13T00:42:14.301Z,8.93
2019-05-13T00:44:44.373Z,7.80
2019-05-13T00:47:13.569Z,9.15
2019-05-13T00:49:43.682Z,8.55
2019-05-13T00:52:14.301Z,8.38
2019-05-13T00:54:44.130Z,9.65
2019-05-13T00:57:13.452Z,8.43
2019-05-13T00:59:44.303Z,8.00
2019-05-13T01:02:13.961Z,9.10
2019-05-13T01:04:44.186Z,8.80
2019-05-13T01:07:25.351Z,8.35
2019-05-13T01:09:45.026Z,9.25
2019-05-13T01:12:13.957Z,9.40
2019-05-13T01:14:43.281Z,9.68
2019-05-13T01:17:14.179Z,9.65
2019-05-13T01:19:43.401Z,8.33
2019-05-13T01:22:13.513Z,8.50
2019-05-13T01:24:44.145Z,8.00
2019-05-13T01:27:13.949Z,9.55
2019-05-13T01:29:43.613Z,9.63
2019-05-13T01:32:14.465Z,8.10
2019-05-13T01:34:44.318Z,7.80
2019-05-13T01:37:13.393Z,9.40
2019-05-13T01:39:43.758Z,8.18
2019-05-13T01:42:13.726Z,10.70
2019-05-13T01:44:43.761Z,8.65
2019-05-13T01:47:13.418Z,9.40
2019-05-13T01:49:43.988Z,8.23
2019-05-13T01:52:14.033Z,10.53
2019-05-13T01:54:44.271Z,8.80
2019-05-13T01:57:14.276Z,8.93
2019-05-13T01:59:43.620Z,10.38
2019-05-13T02:02:13.790Z,9.10
2019-05-13T02:04:43.882Z,9.08
2019-05-13T02:07:14.463Z,8.15
2019-05-13T02:09:44.352Z,10.53
2019-05-13T02:12:13.526Z,11.15
2019-05-13T02:14:44.421Z,8.30
2019-05-13T02:17:14.636Z,10.05
2019-05-13T02:19:44.230Z,8.38
2019-05-13T02:22:14.612Z,8.78
2019-05-13T02:24:45.750Z,9.78
2019-05-13T02:27:14.741Z,11.50
2019-05-13T02:29:44.594Z,9.68
2019-05-13T02:32:13.992Z,8.63
2019-05-13T02:34:43.829Z,11.90
2019-05-13T02:37:13.085Z,8.85
2019-05-13T02:39:42.796Z,13.38
2019-05-13T02:42:13.429Z,8.60
2019-05-13T02:44:43.730Z,9.65
2019-05-13T02:47:12.951Z,9.90
2019-05-13T02:49:43.262Z,9.38
2019-05-13T02:52:13.952Z,8.73
2019-05-13T02:54:43.866Z,8.50
2019-05-13T02:57:12.741Z,10.72
2019-05-13T02:59:42.215Z,9.63
2019-05-13T03:02:12.271Z,9.03
2019-05-13T03:04:43.448Z,9.98
2019-05-13T03:07:12.173Z,8.10
2019-05-13T03:09:43.405Z,8.68
2019-05-13T03:12:13.153Z,8.05
2019-05-13T03:14:47.925Z,8.58
2019-05-13T03:17:22.341Z,9.15
2019-05-13T03:19:53.045Z,9.53
2019-05-13T03:22:22.543Z,10.58
2019-05-13T03:24:52.491Z,8.43
2019-05-13T03:27:24.932Z,11.38
2019-05-13T03:29:53.357Z,9.73
2019-05-13T03:32:27.250Z,8.65
2019-05-13T03:34:56.537Z,14.73
2019-05-13T03:37:26.655Z,10.95
2019-05-13T03:39:55.661Z,9.85
2019-05-13T03:42:25.855Z,10.28
2019-05-13T03:44:55.881Z,10.58
2019-05-13T03:47:25.254Z,9.48
2019-05-13T03:49:58.899Z,11.03
2019-05-13T03:52:27.885Z,8.28
2019-05-13T03:54:57.157Z,12.15
2019-05-13T03:57:26.658Z,9.28
2019-05-13T03:59:55.632Z,9.28
2019-05-13T04:02:24.693Z,10.55
2019-05-13T04:04:53.665Z,8.75
2019-05-13T04:07:23.984Z,8.40
2019-05-13T04:09:53.671Z,9.20
2019-05-13T04:12:27.622Z,8.73
2019-05-13T04:14:54.559Z,9.65
2019-05-13T04:17:25.766Z,9.15
2019-05-13T04:19:54.758Z,11.63
2019-05-13T04:22:23.798Z,8.30
2019-05-13T04:24:53.207Z,12.00
2019-05-13T04:27:23.277Z,9.45
2019-05-13T04:29:53.089Z,9.68
2019-05-13T04:32:22.937Z,8.43
2019-05-13T04:34:52.997Z,8.30
2019-05-13T04:37:22.536Z,12.03
2019-05-13T04:39:56.261Z,10.98
2019-05-13T04:42:23.459Z,8.67
2019-05-13T04:44:53.417Z,9.50
2019-05-13T04:47:23.013Z,9.40
2019-05-13T04:49:53.469Z,10.17
2019-05-13T04:52:22.605Z,8.30
2019-05-13T04:54:52.776Z,11.03
2019-05-13T04:57:23.754Z,9.63
2019-05-13T04:59:55.070Z,8.93
2019-05-13T05:02:54.489Z,8.50
2019-05-13T05:05:52.660Z,9.57
2019-05-13T05:08:52.607Z,9.43
2019-05-13T05:11:53.890Z,10.43
2019-05-13T05:14:38.032Z,10.13
2019-05-13T05:17:42.757Z,12.60
2019-05-13T05:21:01.485Z,8.20
2019-05-13T05:24:03.590Z,8.60
2019-05-13T05:27:21.355Z,11.50
2019-05-13T05:30:12.068Z,8.50
2019-05-13T05:33:17.018Z,11.13
2019-05-13T05:36:11.779Z,9.20
2019-05-13T05:39:07.651Z,9.20
2019-05-13T05:41:36.861Z,9.47
2019-05-13T05:44:08.631Z,11.13
2019-05-13T05:46:42.483Z,8.83
2019-05-13T05:49:12.745Z,8.50
2019-05-13T05:51:44.405Z,11.10
2019-05-13T05:54:14.718Z,9.63
2019-05-13T05:56:46.466Z,9.33
2019-05-13T05:59:15.360Z,8.77
2019-05-13T06:01:47.122Z,9.40
2019-05-13T06:04:22.016Z,11.50
2019-05-13T06:06:52.189Z,11.40
2019-05-13T06:09:21.487Z,10.40
2019-05-13T06:11:52.187Z,11.90
2019-05-13T06:14:22.079Z,10.23
2019-05-13T06:16:52.551Z,10.73
2019-05-13T06:19:22.779Z,8.80
2019-05-13T06:21:51.947Z,11.90
2019-05-13T06:24:24.597Z,9.70
2019-05-13T06:26:52.116Z,12.20
2019-05-13T06:29:22.217Z,10.10
2019-05-13T06:31:51.938Z,12.07
2019-05-13T06:34:21.668Z,12.50
2019-05-13T06:36:52.320Z,10.58
2019-05-13T06:39:22.189Z,16.60
2019-05-13T06:41:51.876Z,9.50
2019-05-13T06:44:21.383Z,12.65
2019-05-13T06:46:51.687Z,10.30
2019-05-13T06:49:21.630Z,12.50
2019-05-13T06:51:52.698Z,9.35
2019-05-13T06:54:22.044Z,15.68
2019-05-13T06:56:51.736Z,10.65
2019-05-13T06:59:22.350Z,9.73
2019-05-13T07:01:51.565Z,12.07
2019-05-13T07:04:21.907Z,11.53
2019-05-13T07:07:01.118Z,11.05
2019-05-13T07:09:21.882Z,9.88
2019-05-13T07:11:51.840Z,12.60
2019-05-13T07:14:21.822Z,12.15
2019-05-13T07:16:52.462Z,9.28
2019-05-13T07:19:23.746Z,18.37
2019-05-13T07:21:52.195Z,14.25
2019-05-13T07:24:21.494Z,8.88
2019-05-13T07:26:52.335Z,11.70
2019-05-13T07:29:24.034Z,11.35
2019-05-13T07:31:52.334Z,10.65
2019-05-13T07:34:24.612Z,9.20
2019-05-13T07:36:53.124Z,9.65
2019-05-13T07:39:23.101Z,10.53
2019-05-13T07:41:52.207Z,13.05
2019-05-13T07:44:22.341Z,11.08
2019-05-13T07:46:52.297Z,12.20
2019-05-13T07:49:22.486Z,12.28
2019-05-13T07:51:52.132Z,12.30
2019-05-13T07:54:22.044Z,11.38
2019-05-13T07:56:52.390Z,13.35
2019-05-13T07:59:21.407Z,14.73
2019-05-13T08:01:52.219Z,12.78
2019-05-13T08:04:23.700Z,11.18
2019-05-13T08:06:52.434Z,14.30
2019-05-13T08:09:21.933Z,11.88
2019-05-13T08:12:02.268Z,12.13
2019-05-13T08:14:21.878Z,16.90
2019-05-13T08:16:51.968Z,9.53
2019-05-13T08:19:21.779Z,10.35
2019-05-13T08:21:51.925Z,10.98
2019-05-13T08:24:22.631Z,37.88
2019-05-13T08:26:53.103Z,12.35
2019-05-13T08:29:22.264Z,10.20
2019-05-13T08:31:51.851Z,12.50
2019-05-13T08:34:22.551Z,10.15
2019-05-13T08:36:51.518Z,9.08
2019-05-13T08:39:21.626Z,12.47
2019-05-13T08:41:51.558Z,8.93
2019-05-13T08:44:21.619Z,14.10
2019-05-13T08:46:51.879Z,11.97
2019-05-13T08:49:22.100Z,14.00
2019-05-13T08:51:52.733Z,13.08
2019-05-13T08:54:22.085Z,13.48
2019-05-13T08:56:52.697Z,9.80
2019-05-13T08:59:22.184Z,10.48
2019-05-13T09:01:51.958Z,9.00
2019-05-13T09:04:22.277Z,9.70
2019-05-13T09:06:52.608Z,15.95
2019-05-13T09:09:22.095Z,13.45
2019-05-13T09:11:51.644Z,10.20
2019-05-13T09:14:21.905Z,10.17
2019-05-13T09:16:52.541Z,9.73
2019-05-13T09:19:21.677Z,13.13
2019-05-13T09:21:52.601Z,11.45
2019-05-13T09:24:29.070Z,12.63
2019-05-13T09:26:52.706Z,9.35
2019-05-13T09:29:22.573Z,11.12
2019-05-13T09:31:52.168Z,11.27
2019-05-13T09:34:22.143Z,15.50
2019-05-13T09:36:51.856Z,9.85
2019-05-13T09:39:21.686Z,9.35
2019-05-13T09:41:52.166Z,9.38
2019-05-13T09:44:21.865Z,9.35
2019-05-13T09:46:51.645Z,12.40
2019-05-13T09:49:23.720Z,12.25
2019-05-13T09:51:52.411Z,10.80
2019-05-13T09:54:22.343Z,10.58
2019-05-13T09:56:51.962Z,9.75
2019-05-13T09:59:22.131Z,8.90
2019-05-13T10:01:51.906Z,9.08
2019-05-13T10:04:22.294Z,11.03
2019-05-13T10:06:51.230Z,9.47
2019-05-13T10:09:21.734Z,10.50
2019-05-13T10:11:51.911Z,9.33
2019-05-13T10:14:23.076Z,10.20
2019-05-13T10:16:51.782Z,11.43
2019-05-13T10:19:21.462Z,13.47
2019-05-13T10:21:52.487Z,11.30
2019-05-13T10:24:22.204Z,10.13
2019-05-13T10:26:52.390Z,11.73
2019-05-13T10:29:22.443Z,7.97
2019-05-13T10:31:52.327Z,11.97
2019-05-13T10:34:22.522Z,10.07
2019-05-13T10:36:52.089Z,12.00
2019-05-13T10:39:22.413Z,13.27
2019-05-13T10:41:52.365Z,8.50
2019-05-13T10:44:21.417Z,11.40
2019-05-13T10:46:52.206Z,10.77
2019-05-13T10:49:22.075Z,11.17
2019-05-13T10:51:52.601Z,9.20
2019-05-13T10:54:21.968Z,9.07
2019-05-13T10:56:53.061Z,9.13
2019-05-13T10:59:22.952Z,15.57
2019-05-13T11:01:52.223Z,10.23
2019-05-13T11:04:22.426Z,13.93
2019-05-13T11:06:52.422Z,12.53
2019-05-13T11:09:22.397Z,8.73
2019-05-13T11:11:52.763Z,10.93
2019-05-13T11:14:22.489Z,13.60
2019-05-13T11:16:52.673Z,12.80
2019-05-13T11:19:23.096Z,11.55
2019-05-13T11:21:54.349Z,8.43
2019-05-13T11:24:32.524Z,13.28
2019-05-13T11:27:02.795Z,11.57
2019-05-13T11:29:32.538Z,10.27
2019-05-13T11:32:02.738Z,9.70
2019-05-13T11:34:32.923Z,9.73
2019-05-13T11:37:03.568Z,8.50
2019-05-13T11:39:32.881Z,13.27
2019-05-13T11:42:02.857Z,9.93
2019-05-13T11:44:32.325Z,12.73
2019-05-13T11:47:02.842Z,13.07
2019-05-13T11:49:32.156Z,10.27
2019-05-13T11:52:02.789Z,9.10
2019-05-13T11:54:32.209Z,8.67
2019-05-13T11:57:05.937Z,10.30
2019-05-13T11:59:32.924Z,12.83
2019-05-13T12:02:04.604Z,10.80
2019-05-13T12:04:35.667Z,11.13
2019-05-13T12:07:04.822Z,9.87
2019-05-13T12:09:34.753Z,10.40
2019-05-13T12:12:04.749Z,8.67
2019-05-13T12:14:56.203Z,15.50
2019-05-13T12:17:13.893Z,11.10
2019-05-13T12:19:41.843Z,9.20
2019-05-13T12:22:13.211Z,9.50
2019-05-13T12:24:42.413Z,9.10
2019-05-13T12:27:11.634Z,12.37
2019-05-13T12:29:43.099Z,9.37
2019-05-13T12:32:13.563Z,9.87
2019-05-13T12:34:45.952Z,9.70
2019-05-13T12:37:13.001Z,10.57
2019-05-13T12:39:43.879Z,13.73
2019-05-13T12:42:12.876Z,9.50
2019-05-13T12:45:00.618Z,10.90
2019-05-13T12:47:12.625Z,13.83
2019-05-13T12:49:43.753Z,15.77
2019-05-13T12:52:13.253Z,19.33
2019-05-13T12:54:44.037Z,13.03
2019-05-13T12:57:16.244Z,12.83
2019-05-13T12:59:44.765Z,12.20
2019-05-13T13:02:13.713Z,13.07
2019-05-13T13:05:07.875Z,11.97
2019-05-13T13:07:14.663Z,15.97
2019-05-13T13:09:43.798Z,12.80
2019-05-13T13:12:12.686Z,12.17
2019-05-13T13:14:44.273Z,10.37
2019-05-13T13:17:14.043Z,15.70
2019-05-13T13:19:43.025Z,9.13
2019-05-13T13:22:13.552Z,10.10
2019-05-13T13:24:50.789Z,11.73
2019-05-13T13:27:19.310Z,11.40
2019-05-13T13:29:44.954Z,8.70
2019-05-13T13:32:14.018Z,10.87
2019-05-13T13:34:43.904Z,10.63
2019-05-13T13:37:13.623Z,10.73
2019-05-13T13:39:43.438Z,10.57
2019-05-13T13:42:13.293Z,8.87
2019-05-13T13:44:43.028Z,10.53
2019-05-13T13:47:14.658Z,9.80
2019-05-13T13:49:43.866Z,9.40
2019-05-13T13:52:16.127Z,9.70
2019-05-13T13:54:44.496Z,10.23
2019-05-13T13:57:13.910Z,9.43
2019-05-13T14:00:14.960Z,10.07
2019-05-13T14:02:14.632Z,9.50
2019-05-13T14:04:43.682Z,9.03
2019-05-13T14:07:26.186Z,12.00
2019-05-13T14:09:43.764Z,14.40
2019-05-13T14:12:12.815Z,10.13
2019-05-13T14:14:41.770Z,14.53
2019-05-13T14:17:11.318Z,8.83
2019-05-13T14:19:42.262Z,12.90
2019-05-13T14:22:12.601Z,10.13
2019-05-13T14:24:42.511Z,11.00
2019-05-13T14:27:12.178Z,10.47
2019-05-13T14:29:48.700Z,15.80
2019-05-13T14:32:14.130Z,11.73
2019-05-13T14:34:43.040Z,9.33
2019-05-13T14:37:12.071Z,9.67
2019-05-13T14:39:42.643Z,9.20
2019-05-13T14:42:11.852Z,10.90
2019-05-13T14:44:41.265Z,10.10
2019-05-13T14:47:12.270Z,11.97
2019-05-13T14:49:42.364Z,11.73
2019-05-13T14:52:12.184Z,12.00
2019-05-13T14:54:42.103Z,11.60
2019-05-13T14:57:14.872Z,11.77
2019-05-13T14:59:42.924Z,10.37
2019-05-13T15:02:12.114Z,13.70
2019-05-13T15:04:46.734Z,12.43
2019-05-13T15:07:47.819Z,11.63
2019-05-13T15:10:23.693Z,9.67
2019-05-13T15:12:59.079Z,12.50
2019-05-13T15:15:32.781Z,12.37
2019-05-13T15:18:03.273Z,12.17
2019-05-13T15:20:33.227Z,9.37
2019-05-13T15:23:05.416Z,8.43
2019-05-13T15:25:42.834Z,8.50
2019-05-13T15:28:13.811Z,7.93
2019-05-13T15:30:54.143Z,11.83
2019-05-13T15:33:24.849Z,10.27
2019-05-13T15:35:55.869Z,10.80
2019-05-13T15:38:33.975Z,9.90
2019-05-13T15:41:15.911Z,8.00
2019-05-13T15:51:42.340Z,9.27
2019-05-13T15:54:25.724Z,8.27
2019-05-13T15:57:21.309Z,9.53
2019-05-13T15:59:48.655Z,8.70
2019-05-13T16:02:52.228Z,10.20
2019-05-13T16:05:24.632Z,9.03
2019-05-13T16:08:23.930Z,9.67
2019-05-13T16:11:02.419Z,8.43
2019-05-13T16:13:33.771Z,8.97
2019-05-13T16:16:05.452Z,11.50
2019-05-13T16:18:34.637Z,9.97
2019-05-13T16:26:06.568Z,11.80
2019-05-13T16:29:31.543Z,8.93
2019-05-13T16:32:25.615Z,9.90
2019-05-13T16:35:13.571Z,8.17
2019-05-13T16:38:12.514Z,11.90
2019-05-13T16:42:11.869Z,10.63
2019-05-13T17:49:56.720Z,10.03
2019-05-13T17:57:31.898Z,14.53
2019-05-13T18:07:58.963Z,10.60
2019-05-13T18:10:42.096Z,9.53
2019-05-13T18:13:21.622Z,8.70
2019-05-13T18:16:26.787Z,13.20
2019-05-13T18:19:04.452Z,10.90
2019-05-13T18:44:42.959Z,9.50
2019-05-13T18:48:12.253Z,9.18
2019-05-13T18:50:42.013Z,8.45
2019-05-13T18:53:11.084Z,10.63
2019-05-13T18:55:41.621Z,9.87
2019-05-13T18:58:11.634Z,8.38
2019-05-13T19:00:41.634Z,10.50
2019-05-13T19:03:12.426Z,10.33
2019-05-13T19:05:42.244Z,7.70
2019-05-13T19:08:12.277Z,7.60
2019-05-13T19:10:41.637Z,8.60
2019-05-13T19:13:14.295Z,8.50
2019-05-13T19:15:43.052Z,10.10
2019-05-13T19:18:12.399Z,10.80
2019-05-13T19:20:41.926Z,9.93
2019-05-13T19:23:11.849Z,8.73
2019-05-13T19:25:42.739Z,10.60
2019-05-13T19:28:14.386Z,10.58
2019-05-13T19:30:45.165Z,11.15
2019-05-13T19:33:14.544Z,11.80
2019-05-13T19:35:43.621Z,8.40
2019-05-13T19:38:12.681Z,9.98
2019-05-13T19:40:42.122Z,7.90
2019-05-13T19:43:11.710Z,8.43
2019-05-13T19:45:41.618Z,9.30
2019-05-13T19:48:11.815Z,9.73
2019-05-13T19:50:41.725Z,9.75
2019-05-13T19:53:12.047Z,11.78
2019-05-13T19:55:41.632Z,9.45
2019-05-13T19:58:12.399Z,10.68
2019-05-13T20:00:42.378Z,8.85
2019-05-13T20:03:11.900Z,8.68
2019-05-13T20:05:41.890Z,8.43
2019-05-13T20:08:13.397Z,8.45
2019-05-13T20:10:42.480Z,8.38
2019-05-13T20:13:11.905Z,9.47
2019-05-13T20:15:41.440Z,10.15
2019-05-13T20:18:12.228Z,8.00
2019-05-13T20:20:41.722Z,8.60
2019-05-13T20:23:12.070Z,9.35
2019-05-13T20:25:41.789Z,13.32
2019-05-13T20:28:11.614Z,8.10
2019-05-13T20:30:45.131Z,12.18
2019-05-13T20:33:12.830Z,9.35
2019-05-13T20:35:42.242Z,13.03
2019-05-13T20:38:11.559Z,9.13
2019-05-13T20:40:43.719Z,10.30
2019-05-13T20:43:14.329Z,10.43
2019-05-13T20:45:43.491Z,9.50
2019-05-13T20:48:12.532Z,9.38
2019-05-13T20:50:41.486Z,8.90
2019-05-13T20:53:15.069Z,9.70
2019-05-13T20:55:44.139Z,8.70
2019-05-13T20:58:13.054Z,12.00
2019-05-13T21:00:42.981Z,8.95
2019-05-13T21:03:11.991Z,11.85
2019-05-13T21:05:41.827Z,8.33
2019-05-13T21:08:11.230Z,8.60
2019-05-13T21:10:42.283Z,12.30
2019-05-13T21:13:12.245Z,11.45
2019-05-13T21:15:42.826Z,11.20
2019-05-13T21:18:12.302Z,10.15
2019-05-13T21:20:41.592Z,8.88
2019-05-13T21:23:11.380Z,10.28
2019-05-13T21:25:41.868Z,10.45
2019-05-13T21:28:11.496Z,11.00
2019-05-13T21:30:42.016Z,8.68
2019-05-13T21:33:11.530Z,10.03
2019-05-13T21:35:41.910Z,10.82
2019-05-13T21:38:12.363Z,64.70
2019-05-13T21:40:41.894Z,49.98
2019-05-13T21:43:11.327Z,54.70
2019-05-13T21:45:41.590Z,57.08
2019-05-13T21:48:13.642Z,55.58
2019-05-13T21:50:51.533Z,182.05
2019-05-13T21:53:24.511Z,113.80
2019-05-13T21:55:53.728Z,97.80
2019-05-13T21:58:27.347Z,80.95
2019-05-13T22:01:01.560Z,67.03
2019-05-13T22:03:33.454Z,67.27
2019-05-13T22:06:02.303Z,105.25
2019-05-13T22:08:32.285Z,138.68
2019-05-13T22:11:02.053Z,88.22
2019-05-13T22:13:34.279Z,37.75
2019-05-13T22:16:05.507Z,33.67
2019-05-13T22:18:38.223Z,25.70
2019-05-13T22:21:07.872Z,25.90
2019-05-13T22:23:38.180Z,25.82
2019-05-13T22:26:07.620Z,25.43
2019-05-13T22:28:41.777Z,27.52
2019-05-13T22:31:11.701Z,31.27
2019-05-13T22:33:41.231Z,27.80
2019-05-13T22:36:11.802Z,25.72
2019-05-13T22:38:42.603Z,26.75
2019-05-13T22:41:11.870Z,27.98
2019-05-13T22:43:54.418Z,27.50
2019-05-13T22:46:13.831Z,29.63
2019-05-13T22:48:42.378Z,25.32
2019-05-13T22:51:12.430Z,26.97
2019-05-13T22:53:42.244Z,28.15
2019-05-13T22:56:11.435Z,26.75
2019-05-13T22:58:41.225Z,28.70
2019-05-13T23:01:11.556Z,27.85
2019-05-13T23:03:41.241Z,26.80
2019-05-13T23:06:12.100Z,27.02
2019-05-13T23:08:41.187Z,34.80
2019-05-13T23:11:11.388Z,28.05
2019-05-13T23:13:42.132Z,28.10
2019-05-13T23:16:13.505Z,28.73
2019-05-13T23:18:42.535Z,27.45
2019-05-13T23:21:11.637Z,29.80
2019-05-13T23:23:40.741Z,30.05
2019-05-13T23:26:11.724Z,28.05
2019-05-13T23:28:41.551Z,27.73
2019-05-13T23:31:12.343Z,29.12
2019-05-13T23:33:42.530Z,27.93
2019-05-13T23:36:12.094Z,28.70
2019-05-13T23:38:41.474Z,30.12
2019-05-13T23:41:11.528Z,30.17
2019-05-13T23:43:41.817Z,30.20
2019-05-13T23:46:11.748Z,29.00
2019-05-13T23:48:42.544Z,31.97
2019-05-13T23:51:13.022Z,30.15
2019-05-13T23:53:42.228Z,30.82
2019-05-13T23:56:11.286Z,9.35
2019-05-13T23:58:41.407Z,9.68
